Time;durP1;ratioP1;P1;durP2;ratioP2;P2;SDS_P1;SDS_P2;PMS_P1;PMS_P2;Temp;Humidity;BMP_temperature;BMP_pressure;BME280_temperature;BME280_humidity;BME280_pressure;Samples;Min_cycle;Max_cycle;Signal;HPM_P1;HPM_P2
2021/07/02 00:00:53;;;;;;;8.43;7.63;;;13.70;99.90;;;;;;5029113;28;20305;-70
2021/07/02 00:03:19;;;;;;;8.82;6.70;;;13.60;99.90;;;;;;5027740;28;20274;-70
2021/07/02 00:05:46;;;;;;;7.85;6.57;;;13.60;99.90;;;;;;5027426;28;20224;-70
2021/07/02 00:08:13;;;;;;;8.07;7.22;;;13.70;99.90;;;;;;5026131;28;20213;-70
2021/07/02 00:10:40;;;;;;;7.40;6.68;;;13.70;99.90;;;;;;5028073;28;20234;-70
2021/07/02 00:13:07;;;;;;;8.07;6.40;;;13.60;99.90;;;;;;5028302;28;20333;-70
2021/07/02 00:15:35;;;;;;;10.00;6.32;;;13.60;99.90;;;;;;5027190;28;20216;-70
2021/07/02 00:18:02;;;;;;;8.85;6.90;;;13.60;99.90;;;;;;5028320;28;20272;-70
2021/07/02 00:20:29;;;;;;;6.60;6.00;;;13.60;99.90;;;;;;5027965;28;20238;-70
2021/07/02 00:22:56;;;;;;;7.10;6.40;;;13.60;99.90;;;;;;5027103;28;20206;-70
2021/07/02 00:25:22;;;;;;;7.32;6.63;;;13.70;99.90;;;;;;5026738;28;20293;-70
2021/07/02 00:27:49;;;;;;;7.28;6.57;;;13.70;99.90;;;;;;5027759;28;20744;-70
2021/07/02 00:30:17;;;;;;;7.07;6.38;;;13.70;99.90;;;;;;5027913;28;20256;-70
2021/07/02 00:32:45;;;;;;;8.93;7.22;;;13.60;99.90;;;;;;5028638;28;20202;-70
2021/07/02 00:35:12;;;;;;;7.78;6.68;;;13.70;99.90;;;;;;5019640;28;20297;-70
2021/07/02 00:37:39;;;;;;;11.70;6.45;;;13.70;99.90;;;;;;5025272;28;20207;-70
2021/07/02 00:40:07;;;;;;;8.82;7.30;;;13.70;99.90;;;;;;5025220;28;20625;-70
2021/07/02 00:42:34;;;;;;;7.68;6.85;;;13.60;99.90;;;;;;5027089;28;20563;-70
2021/07/02 00:45:01;;;;;;;13.52;7.10;;;13.60;99.90;;;;;;5026587;28;20207;-70
2021/07/02 00:47:28;;;;;;;8.35;7.57;;;13.60;99.90;;;;;;5009175;23;20237;-69
2021/07/02 00:49:56;;;;;;;8.05;7.35;;;13.60;99.90;;;;;;4985612;23;20336;-69
2021/07/02 00:52:23;;;;;;;8.43;7.53;;;13.60;99.90;;;;;;4987801;28;20326;-70
2021/07/02 00:54:52;;;;;;;9.70;7.32;;;13.60;99.90;;;;;;4987271;28;20298;-70
2021/07/02 00:57:19;;;;;;;10.48;7.90;;;13.60;99.90;;;;;;4988143;28;20204;-70
2021/07/02 00:59:47;;;;;;;6.80;6.20;;;13.50;99.90;;;;;;4987048;28;20298;-70
2021/07/02 01:02:16;;;;;;;8.23;7.38;;;13.50;99.90;;;;;;4987969;28;20215;-70
2021/07/02 01:04:43;;;;;;;7.28;6.57;;;13.50;99.90;;;;;;4987573;28;20208;-70
2021/07/02 01:07:12;;;;;;;7.80;7.00;;;13.50;99.90;;;;;;4987954;28;20266;-70
2021/07/02 01:09:41;;;;;;;8.35;7.45;;;13.60;99.90;;;;;;4980218;28;20208;-70
2021/07/02 01:12:10;;;;;;;8.23;6.60;;;13.60;99.90;;;;;;4984202;28;20720;-70
2021/07/02 01:14:37;;;;;;;7.53;6.82;;;13.50;99.90;;;;;;4983857;28;20208;-71
2021/07/02 01:17:05;;;;;;;6.68;6.07;;;13.50;99.90;;;;;;4987638;28;20210;-70
2021/07/02 01:19:32;;;;;;;7.22;6.53;;;13.40;99.90;;;;;;4986916;28;20231;-70
2021/07/02 01:22:00;;;;;;;7.70;6.68;;;13.40;99.90;;;;;;4986871;28;20612;-70
2021/07/02 01:24:29;;;;;;;7.18;6.47;;;13.40;99.90;;;;;;4987198;28;20561;-71
2021/07/02 01:26:56;;;;;;;7.10;6.40;;;13.40;99.90;;;;;;4977478;28;20283;-70
2021/07/02 01:29:23;;;;;;;7.40;6.70;;;13.40;99.90;;;;;;4987619;28;20207;-70
2021/07/02 01:31:50;;;;;;;7.68;6.95;;;13.30;99.90;;;;;;4983215;28;20233;-70
2021/07/02 01:34:17;;;;;;;8.75;7.18;;;13.30;99.90;;;;;;4986481;28;20223;-70
2021/07/02 01:36:44;;;;;;;8.75;7.22;;;13.30;99.90;;;;;;4987130;28;20339;-71
2021/07/02 01:39:15;;;;;;;7.82;7.00;;;13.30;99.90;;;;;;4982040;28;20566;-70
2021/07/02 01:41:42;;;;;;;9.98;7.85;;;13.30;99.90;;;;;;4987770;28;20302;-70
2021/07/02 01:44:09;;;;;;;8.27;7.57;;;13.40;99.90;;;;;;4987033;28;20230;-70
2021/07/02 01:46:38;;;;;;;6.90;6.20;;;13.40;99.90;;;;;;4985697;28;20231;-70
2021/07/02 01:49:07;;;;;;;7.70;6.88;;;13.40;99.90;;;;;;4987822;28;20223;-70
2021/07/02 01:51:33;;;;;;;6.43;5.55;;;13.60;99.90;;;;;;4985473;28;20701;-70
2021/07/02 01:54:00;;;;;;;7.07;6.45;;;13.70;99.90;;;;;;4986900;28;20207;-70
2021/07/02 01:56:28;;;;;;;7.43;6.72;;;13.70;99.90;;;;;;4974600;28;21437;-70
2021/07/02 01:58:55;;;;;;;8.13;6.95;;;13.70;99.90;;;;;;4987472;28;20211;-70
2021/07/02 02:01:23;;;;;;;7.05;6.35;;;13.60;99.90;;;;;;4984450;28;20207;-70
2021/07/02 02:03:53;;;;;;;7.28;6.65;;;13.60;99.90;;;;;;4989926;28;20207;-70
2021/07/02 02:06:19;;;;;;;7.47;6.78;;;13.70;99.90;;;;;;4985674;28;20339;-70
2021/07/02 02:08:46;;;;;;;7.40;6.70;;;13.70;99.90;;;;;;4983985;28;20212;-70
2021/07/02 02:11:13;;;;;;;7.03;6.20;;;13.70;99.90;;;;;;4984911;28;20318;-70
2021/07/02 02:13:42;;;;;;;6.90;6.25;;;13.70;99.90;;;;;;4988240;28;20231;-71
2021/07/02 02:16:09;;;;;;;11.75;6.55;;;13.70;99.90;;;;;;4983524;28;20658;-71
2021/07/02 02:18:36;;;;;;;7.00;6.30;;;13.60;99.90;;;;;;4986718;28;20199;-70
2021/07/02 02:21:03;;;;;;;7.50;6.15;;;13.70;99.90;;;;;;4983925;28;20532;-70
2021/07/02 02:23:30;;;;;;;7.80;6.90;;;13.70;99.90;;;;;;4986898;28;20635;-70
2021/07/02 02:25:56;;;;;;;7.10;6.40;;;13.60;99.90;;;;;;4985077;28;20302;-70
2021/07/02 02:28:23;;;;;;;6.63;5.90;;;13.60;99.90;;;;;;4987696;28;20314;-70
2021/07/02 02:30:51;;;;;;;7.50;6.80;;;13.60;99.90;;;;;;4984251;28;20712;-70
2021/07/02 02:33:18;;;;;;;9.73;6.80;;;13.60;99.90;;;;;;4984841;28;20212;-70
2021/07/02 02:35:45;;;;;;;7.10;6.15;;;13.60;99.90;;;;;;4987869;28;20254;-70
2021/07/02 02:38:12;;;;;;;8.05;7.25;;;13.50;99.90;;;;;;4982383;28;20231;-70
2021/07/02 02:40:39;;;;;;;7.25;6.30;;;13.50;99.90;;;;;;4985935;28;20204;-70
2021/07/02 02:43:06;;;;;;;7.65;6.40;;;13.40;99.90;;;;;;4985905;28;20294;-70
2021/07/02 02:45:32;;;;;;;12.07;7.00;;;13.30;99.90;;;;;;4987431;28;20208;-70
2021/07/02 02:48:01;;;;;;;9.30;6.80;;;13.30;99.90;;;;;;4987916;28;20211;-70
2021/07/02 02:50:28;;;;;;;7.63;6.82;;;13.20;99.90;;;;;;4985955;28;20302;-70
2021/07/02 02:52:54;;;;;;;7.80;7.00;;;13.10;99.90;;;;;;4985687;28;20335;-70
2021/07/02 02:55:22;;;;;;;6.75;6.05;;;13.20;99.90;;;;;;4983532;28;20287;-72
2021/07/02 02:57:49;;;;;;;8.45;6.90;;;13.10;99.90;;;;;;4983691;28;20596;-70
2021/07/02 03:00:17;;;;;;;7.97;6.60;;;13.00;99.90;;;;;;4985486;28;20206;-70
2021/07/02 03:02:44;;;;;;;9.15;7.80;;;12.90;99.90;;;;;;4985954;28;20282;-70
2021/07/02 03:05:12;;;;;;;8.65;7.13;;;12.70;99.90;;;;;;4982732;28;20290;-70
2021/07/02 03:07:41;;;;;;;8.20;7.40;;;12.70;99.90;;;;;;4978911;28;20204;-70
2021/07/02 03:10:10;;;;;;;7.93;6.85;;;12.70;99.90;;;;;;4981838;28;20227;-70
2021/07/02 03:12:37;;;;;;;9.63;6.97;;;12.60;99.90;;;;;;4985905;28;20234;-70
2021/07/02 03:15:04;;;;;;;8.48;7.30;;;12.60;99.90;;;;;;4980995;28;21479;-70
2021/07/02 03:17:31;;;;;;;7.95;6.85;;;12.50;99.90;;;;;;4976868;28;20205;-70
2021/07/02 03:19:58;;;;;;;10.82;8.18;;;12.40;99.90;;;;;;4982217;28;20559;-70
2021/07/02 03:22:26;;;;;;;9.13;7.70;;;12.50;99.90;;;;;;4986376;28;20303;-70
2021/07/02 03:24:53;;;;;;;12.23;8.30;;;12.50;99.90;;;;;;4982918;28;20311;-70
2021/07/02 03:27:20;;;;;;;8.32;7.43;;;12.40;99.90;;;;;;4978512;28;20314;-70
2021/07/02 03:29:47;;;;;;;9.02;7.95;;;12.40;99.90;;;;;;4985921;28;20718;-70
2021/07/02 03:32:13;;;;;;;8.65;7.75;;;12.30;99.90;;;;;;4983560;28;20326;-70
2021/07/02 03:34:44;;;;;;;9.57;8.30;;;12.20;99.90;;;;;;4980294;28;20303;-70
2021/07/02 03:37:11;;;;;;;12.57;8.95;;;12.30;99.90;;;;;;4984802;28;20287;-70
2021/07/02 03:39:40;;;;;;;9.40;8.48;;;12.30;99.90;;;;;;4986079;28;20230;-70
2021/07/02 03:42:07;;;;;;;9.95;7.97;;;12.20;99.90;;;;;;4985633;28;20309;-70
2021/07/02 03:44:34;;;;;;;9.43;8.07;;;12.00;99.90;;;;;;4985172;28;20295;-70
2021/07/02 03:47:01;;;;;;;9.05;8.07;;;12.00;99.90;;;;;;4984822;28;20578;-70
2021/07/02 03:49:29;;;;;;;9.52;8.52;;;12.10;99.90;;;;;;4980889;28;20307;-70
2021/07/02 03:51:56;;;;;;;14.13;8.45;;;12.20;99.90;;;;;;4984560;28;20286;-70
2021/07/02 03:54:23;;;;;;;10.15;8.40;;;12.10;99.90;;;;;;4985606;28;20511;-70
2021/07/02 03:59:35;;;;;;;11.57;7.97;;;12.20;99.90;;;;;;4983688;28;20208;-70
2021/07/02 04:02:02;;;;;;;12.13;9.18;;;12.20;99.90;;;;;;4985942;28;20204;-70
2021/07/02 04:04:29;;;;;;;12.52;8.20;;;12.20;99.90;;;;;;4989085;28;20207;-70
2021/07/02 04:06:56;;;;;;;10.30;8.50;;;12.20;99.90;;;;;;4987022;28;20207;-70
2021/07/02 04:09:22;;;;;;;11.85;9.10;;;12.30;99.90;;;;;;4988991;28;20819;-70
2021/07/02 04:11:51;;;;;;;12.27;8.73;;;12.30;99.90;;;;;;4988756;28;20233;-70
2021/07/02 04:14:17;;;;;;;9.57;8.48;;;12.40;99.90;;;;;;4988918;28;20200;-70
2021/07/02 04:16:44;;;;;;;11.57;8.65;;;12.60;99.90;;;;;;4987436;28;20595;-70
2021/07/02 04:19:11;;;;;;;9.57;8.57;;;12.90;99.90;;;;;;4983396;28;20200;-70
2021/07/02 04:21:40;;;;;;;10.07;8.65;;;13.20;99.90;;;;;;4980224;28;20219;-70
2021/07/02 04:24:07;;;;;;;9.32;8.32;;;13.40;99.90;;;;;;4988428;28;20298;-70
2021/07/02 04:26:34;;;;;;;9.23;7.93;;;13.50;99.90;;;;;;4988183;28;20291;-70
2021/07/02 04:29:02;;;;;;;8.70;7.80;;;13.70;99.90;;;;;;4983412;28;20211;-70
2021/07/02 04:31:30;;;;;;;8.20;7.40;;;13.80;99.90;;;;;;4986208;28;20242;-70
2021/07/02 04:33:56;;;;;;;9.75;8.45;;;13.70;99.90;;;;;;4987913;28;20306;-70
2021/07/02 04:36:23;;;;;;;8.93;8.13;;;13.60;99.90;;;;;;4987286;28;20286;-70
2021/07/02 04:38:50;;;;;;;9.75;8.15;;;13.50;99.90;;;;;;4988590;28;20303;-70
2021/07/02 04:41:17;;;;;;;8.88;7.63;;;13.70;99.90;;;;;;4987118;28;20219;-70
2021/07/02 04:43:44;;;;;;;7.93;7.03;;;13.80;99.90;;;;;;4988902;28;20210;-69
2021/07/02 04:46:12;;;;;;;8.38;7.50;;;13.90;99.90;;;;;;4990901;28;20637;-70
2021/07/02 04:48:39;;;;;;;7.78;6.97;;;14.00;99.90;;;;;;4986456;28;20216;-69
2021/07/02 04:51:07;;;;;;;10.40;7.90;;;14.00;99.90;;;;;;4987449;28;20199;-70
2021/07/02 04:53:40;;;;;;;7.95;7.15;;;14.00;99.90;;;;;;4988799;28;20231;-70
2021/07/02 04:56:07;;;;;;;8.77;7.45;;;14.10;99.90;;;;;;4988063;28;20214;-69
2021/07/02 04:58:34;;;;;;;8.75;7.05;;;14.20;99.90;;;;;;4987831;28;20648;-69
2021/07/02 05:01:00;;;;;;;10.60;7.50;;;14.20;99.90;;;;;;4984287;28;20258;-69
2021/07/02 05:03:29;;;;;;;9.93;8.35;;;14.30;99.90;;;;;;4986157;28;20277;-69
2021/07/02 05:05:56;;;;;;;9.00;8.10;;;14.40;99.90;;;;;;4986651;28;20239;-70
2021/07/02 05:08:24;;;;;;;8.80;7.70;;;14.50;99.90;;;;;;4987232;28;20227;-69
2021/07/02 05:10:51;;;;;;;8.20;7.45;;;14.70;99.90;;;;;;4987419;28;20204;-70
2021/07/02 05:13:18;;;;;;;7.82;7.13;;;14.80;99.90;;;;;;4987380;28;20232;-69
2021/07/02 05:15:44;;;;;;;8.40;7.53;;;14.90;99.90;;;;;;4983721;28;20207;-69
2021/07/02 05:18:11;;;;;;;8.35;7.45;;;14.70;99.90;;;;;;4987696;28;20326;-69
2021/07/02 05:20:43;;;;;;;9.15;8.18;;;15.00;99.90;;;;;;4987921;28;20235;-70
2021/07/02 05:23:10;;;;;;;8.75;7.90;;;14.80;99.90;;;;;;4983120;28;20310;-69
2021/07/02 05:25:37;;;;;;;8.73;7.82;;;15.00;99.90;;;;;;4985106;28;20195;-70
2021/07/02 05:28:04;;;;;;;7.60;6.80;;;15.20;99.90;;;;;;4981920;28;20350;-69
2021/07/02 05:30:32;;;;;;;12.60;7.53;;;15.20;99.90;;;;;;4987869;28;20626;-69
2021/07/02 05:32:59;;;;;;;7.20;6.50;;;15.20;99.90;;;;;;4977261;28;21041;-69
2021/07/02 05:35:26;;;;;;;8.27;7.07;;;15.40;99.90;;;;;;4988290;28;20203;-69
2021/07/02 05:37:54;;;;;;;8.63;7.82;;;15.40;99.90;;;;;;4987361;28;20207;-69
2021/07/02 05:40:21;;;;;;;9.70;8.80;;;15.40;99.90;;;;;;4987701;28;20295;-69
2021/07/02 05:42:48;;;;;;;8.10;7.38;;;15.50;99.90;;;;;;4982695;28;20208;-69
2021/07/02 05:45:15;;;;;;;7.15;6.43;;;15.90;99.90;;;;;;4991758;28;20208;-69
2021/07/02 05:47:47;;;;;;;6.60;5.85;;;16.70;99.90;;;;;;4987045;28;20334;-69
2021/07/02 05:50:15;;;;;;;6.53;5.93;;;19.20;99.90;;;;;;4983941;28;20266;-69
2021/07/02 05:52:42;;;;;;;6.63;5.13;;;21.20;99.90;;;;;;4984543;28;20682;-70
2021/07/02 05:55:12;;;;;;;6.80;6.20;;;22.20;96.50;;;;;;4985994;28;20638;-70
2021/07/02 05:57:39;;;;;;;6.13;5.53;;;23.50;94.20;;;;;;4984622;28;20730;-70
2021/07/02 06:00:08;;;;;;;6.27;5.70;;;23.00;93.90;;;;;;4987896;28;20650;-70
2021/07/02 06:02:44;;;;;;;6.23;5.83;;;23.50;92.30;;;;;;4982809;28;21041;-70
2021/07/02 06:05:11;;;;;;;6.43;5.83;;;23.50;92.50;;;;;;4984204;28;21217;-70
2021/07/02 06:07:46;;;;;;;7.20;6.60;;;23.30;92.10;;;;;;4981160;28;20672;-70
2021/07/02 06:10:16;;;;;;;6.40;5.90;;;21.90;93.60;;;;;;4985680;28;20620;-70
2021/07/02 06:12:43;;;;;;;5.97;5.53;;;22.80;93.30;;;;;;4988175;28;20684;-70
2021/07/02 06:15:12;;;;;;;5.47;5.03;;;24.20;91.20;;;;;;4978231;28;20668;-70
2021/07/02 06:17:39;;;;;;;6.20;5.50;;;25.40;89.40;;;;;;4983491;28;20630;-70
2021/07/02 06:20:07;;;;;;;7.77;5.27;;;27.20;83.50;;;;;;4984173;28;20642;-70
2021/07/02 06:22:34;;;;;;;5.87;5.37;;;27.70;79.50;;;;;;4984733;28;20730;-70
2021/07/02 06:25:00;;;;;;;5.27;4.77;;;29.00;74.60;;;;;;4986399;28;21149;-70
2021/07/02 06:27:29;;;;;;;5.57;5.10;;;29.60;71.20;;;;;;4986516;28;20731;-70
2021/07/02 06:29:56;;;;;;;5.30;5.00;;;29.90;70.40;;;;;;4978736;28;21112;-70
2021/07/02 06:32:23;;;;;;;5.70;5.20;;;29.50;71.90;;;;;;4984611;28;20766;-70
2021/07/02 06:34:49;;;;;;;5.50;5.10;;;29.70;69.60;;;;;;4978879;28;20722;-70
2021/07/02 06:37:16;;;;;;;6.23;5.73;;;30.10;68.70;;;;;;4985415;28;20631;-70
2021/07/02 06:39:43;;;;;;;5.57;5.17;;;30.10;68.90;;;;;;4985306;28;20700;-70
2021/07/02 06:42:11;;;;;;;5.80;5.30;;;30.20;66.80;;;;;;4982833;28;20647;-69
2021/07/02 06:44:40;;;;;;;6.20;5.70;;;29.20;67.90;;;;;;4986231;28;20622;-70
2021/07/02 06:47:07;;;;;;;7.43;5.67;;;27.80;71.60;;;;;;4986121;28;20639;-70
2021/07/02 06:49:34;;;;;;;6.00;5.50;;;26.80;74.00;;;;;;4987084;23;20691;-70
2021/07/02 06:52:01;;;;;;;6.93;5.47;;;27.50;72.20;;;;;;4943364;28;21096;-70
2021/07/02 06:54:27;;;;;;;5.73;5.23;;;28.40;71.90;;;;;;4947340;28;20651;-70
2021/07/02 06:57:03;;;;;;;6.13;5.63;;;29.80;67.70;;;;;;4949528;28;20755;-71
2021/07/02 06:59:32;;;;;;;5.70;5.37;;;29.50;64.40;;;;;;4938876;29;20719;-71
2021/07/02 07:02:01;;;;;;;5.87;5.37;;;28.90;69.60;;;;;;4947533;29;20639;-71
2021/07/02 07:04:34;;;;;;;5.80;5.30;;;29.30;69.20;;;;;;4947621;29;20640;-72
2021/07/02 07:07:01;;;;;;;5.63;5.17;;;30.40;65.80;;;;;;4947533;28;21193;-70
2021/07/02 07:09:28;;;;;;;6.03;5.63;;;31.40;61.50;;;;;;4944622;28;20651;-70
2021/07/02 07:11:57;;;;;;;5.93;5.53;;;30.20;62.60;;;;;;4946625;28;21185;-72
2021/07/02 07:14:24;;;;;;;5.30;4.90;;;29.90;66.00;;;;;;4946060;28;20681;-70
2021/07/02 07:16:51;;;;;;;6.10;5.70;;;30.00;65.20;;;;;;4946555;29;20728;-70
2021/07/02 07:19:22;;;;;;;7.63;5.57;;;30.90;61.30;;;;;;4945897;29;20625;-70
2021/07/02 07:21:49;;;;;;;6.10;5.70;;;30.80;63.00;;;;;;4946538;28;20679;-70
2021/07/02 07:24:16;;;;;;;6.33;5.83;;;28.50;63.00;;;;;;4946676;28;20691;-70
2021/07/02 07:26:44;;;;;;;5.63;5.23;;;28.20;65.60;;;;;;4947056;28;20639;-71
2021/07/02 07:29:11;;;;;;;6.27;5.77;;;27.10;67.90;;;;;;4948235;28;20636;-70
2021/07/02 07:31:38;;;;;;;6.50;6.00;;;26.00;72.40;;;;;;4945848;29;20738;-70
2021/07/02 07:34:05;;;;;;;6.37;5.87;;;27.20;70.90;;;;;;4949063;29;20624;-71
2021/07/02 07:36:36;;;;;;;5.60;5.20;;;28.00;69.00;;;;;;4948252;29;21049;-71
2021/07/02 07:39:03;;;;;;;5.50;5.07;;;28.10;64.50;;;;;;4950097;28;20636;-71
2021/07/02 07:41:30;;;;;;;5.10;4.70;;;27.40;65.30;;;;;;4953433;28;20640;-71
2021/07/02 07:43:57;;;;;;;6.07;5.60;;;26.20;69.70;;;;;;4959452;28;20781;-71
2021/07/02 07:46:27;;;;;;;6.20;5.73;;;24.90;73.70;;;;;;4948585;29;20646;-71
2021/07/02 07:48:54;;;;;;;5.70;5.30;;;24.00;74.80;;;;;;4950151;28;20645;-71
2021/07/02 07:51:32;;;;;;;5.50;5.00;;;25.20;74.80;;;;;;4947470;29;20698;-71
2021/07/02 07:54:01;;;;;;;5.60;5.20;;;26.50;69.40;;;;;;4948256;29;20628;-71
2021/07/02 07:56:29;;;;;;;5.27;4.77;;;27.50;65.60;;;;;;4948908;28;21303;-71
2021/07/02 07:58:56;;;;;;;4.77;4.47;;;28.10;64.90;;;;;;4950436;29;20636;-70
2021/07/02 08:01:23;;;;;;;8.40;5.20;;;28.60;61.50;;;;;;4949788;28;21199;-72
2021/07/02 08:03:50;;;;;;;5.63;5.23;;;29.40;62.00;;;;;;4949985;29;21272;-71
2021/07/02 08:06:17;;;;;;;5.30;4.87;;;30.00;59.80;;;;;;4947725;28;20642;-71
2021/07/02 08:08:45;;;;;;;5.20;4.80;;;30.00;60.00;;;;;;4947145;28;20718;-71
2021/07/02 08:11:13;;;;;;;5.20;4.90;;;28.40;61.30;;;;;;4951183;28;20643;-71
2021/07/02 08:13:42;;;;;;;5.57;5.17;;;26.70;65.00;;;;;;4950035;28;20637;-69
2021/07/02 08:16:09;;;;;;;5.30;4.90;;;25.30;70.50;;;;;;4949623;29;20620;-69
2021/07/02 08:18:36;;;;;;;6.03;5.60;;;23.70;72.90;;;;;;4949933;28;20727;-70
2021/07/02 08:21:03;;;;;;;5.80;5.40;;;22.90;74.30;;;;;;4951885;28;20667;-71
2021/07/02 08:23:30;;;;;;;6.10;5.60;;;22.40;77.20;;;;;;4956904;28;20683;-71
2021/07/02 08:25:56;;;;;;;5.40;5.00;;;22.80;76.60;;;;;;4949363;28;20723;-69
2021/07/02 08:31:09;;;;;;;5.53;5.13;;;24.80;73.10;;;;;;4949892;29;21183;-70
2021/07/02 08:33:36;;;;;;;5.43;5.03;;;25.80;70.20;;;;;;4949957;28;20636;-70
2021/07/02 08:36:03;;;;;;;5.43;5.03;;;26.80;66.70;;;;;;4952650;28;20637;-69
2021/07/02 08:38:29;;;;;;;4.90;4.50;;;27.40;65.30;;;;;;4949466;28;21199;-69
2021/07/02 08:40:56;;;;;;;5.33;5.00;;;27.70;65.20;;;;;;4949392;28;20632;-70
2021/07/02 08:43:25;;;;;;;5.23;4.73;;;28.00;61.30;;;;;;4948955;28;20683;-70
2021/07/02 08:45:54;;;;;;;4.83;4.43;;;28.60;60.30;;;;;;4947349;29;20742;-70
2021/07/02 08:48:22;;;;;;;5.20;4.80;;;28.40;61.40;;;;;;4950151;28;20631;-70
2021/07/02 08:50:53;;;;;;;4.60;4.30;;;27.30;61.40;;;;;;4948432;28;21123;-69
2021/07/02 08:53:20;;;;;;;5.20;4.90;;;27.00;64.80;;;;;;4949953;29;20648;-70
2021/07/02 08:55:46;;;;;;;5.67;5.17;;;26.90;63.10;;;;;;4948340;29;20632;-70
2021/07/02 08:58:14;;;;;;;4.63;4.40;;;26.20;65.00;;;;;;4948605;28;20738;-70
2021/07/02 09:00:44;;;;;;;5.93;5.10;;;25.10;68.20;;;;;;4942642;29;20647;-69
2021/07/02 09:03:27;;;;;;;5.33;4.93;;;24.20;71.60;;;;;;4948845;29;20778;-69
2021/07/02 09:05:55;;;;;;;5.50;5.10;;;23.80;75.30;;;;;;4946773;28;20747;-69
2021/07/02 09:08:24;;;;;;;4.80;4.43;;;24.50;74.60;;;;;;4948707;28;20647;-69
2021/07/02 09:10:52;;;;;;;5.63;5.13;;;24.80;71.50;;;;;;4948858;29;20633;-70
2021/07/02 09:13:19;;;;;;;5.13;4.77;;;24.50;72.10;;;;;;4949217;29;21020;-69
2021/07/02 09:15:49;;;;;;;5.53;5.10;;;24.00;72.70;;;;;;4948265;28;21185;-69
2021/07/02 09:18:17;;;;;;;5.50;5.07;;;24.00;72.00;;;;;;4949323;28;20731;-69
2021/07/02 09:20:47;;;;;;;5.70;5.30;;;23.50;76.70;;;;;;4948015;29;20607;-68
2021/07/02 09:23:16;;;;;;;5.67;5.27;;;23.10;75.90;;;;;;4945864;29;20682;-69
2021/07/02 09:25:50;;;;;;;7.13;6.43;;;22.70;77.90;;;;;;4947376;28;21449;-69
2021/07/02 09:28:18;;;;;;;7.10;6.40;;;22.30;80.90;;;;;;4949068;28;20628;-69
2021/07/02 09:30:48;;;;;;;6.30;5.80;;;22.10;82.00;;;;;;4946580;28;20636;-69
2021/07/02 09:33:18;;;;;;;5.90;5.40;;;22.10;80.30;;;;;;4944355;28;20740;-69
2021/07/02 09:35:47;;;;;;;5.67;5.20;;;23.40;81.80;;;;;;4949230;28;20610;-69
2021/07/02 09:38:15;;;;;;;6.20;5.20;;;25.00;77.30;;;;;;4949554;28;20605;-69
2021/07/02 09:40:43;;;;;;;5.50;5.10;;;26.20;72.60;;;;;;4944169;28;20642;-69
2021/07/02 09:43:11;;;;;;;4.40;4.00;;;27.00;64.80;;;;;;4948529;28;20675;-70
2021/07/02 09:45:48;;;;;;;4.80;4.50;;;26.90;62.30;;;;;;4948631;28;20683;-70
2021/07/02 09:48:16;;;;;;;5.13;4.83;;;25.90;60.60;;;;;;4948373;28;20674;-69
2021/07/02 09:50:45;;;;;;;4.60;4.30;;;25.30;67.10;;;;;;4944077;28;20748;-69
2021/07/02 09:53:12;;;;;;;4.97;4.57;;;24.50;69.80;;;;;;4948383;29;20640;-70
2021/07/02 09:55:45;;;;;;;5.83;5.43;;;24.00;72.70;;;;;;4946212;28;20632;-69
2021/07/02 09:58:14;;;;;;;5.63;5.13;;;23.70;72.70;;;;;;4948524;29;20613;-69
2021/07/02 10:00:44;;;;;;;5.30;4.90;;;23.70;71.00;;;;;;4947487;29;20636;-70
2021/07/02 10:03:13;;;;;;;5.70;5.30;;;23.40;74.20;;;;;;4946570;29;20718;-69
2021/07/02 10:05:51;;;;;;;4.53;4.23;;;23.90;69.70;;;;;;4946226;28;20672;-69
2021/07/02 10:08:20;;;;;;;5.40;4.90;;;24.80;71.70;;;;;;4950383;28;20641;-70
2021/07/02 10:10:47;;;;;;;5.53;5.13;;;24.80;71.70;;;;;;4947986;29;21036;-69
2021/07/02 10:13:15;;;;;;;6.10;5.50;;;24.40;69.80;;;;;;4948247;28;20732;-70
2021/07/02 10:15:43;;;;;;;5.97;5.37;;;23.90;71.10;;;;;;4947072;29;20629;-70
2021/07/02 10:18:15;;;;;;;5.27;4.77;;;24.20;72.10;;;;;;4947641;28;21176;-71
2021/07/02 10:20:43;;;;;;;5.40;5.00;;;25.10;72.40;;;;;;4946488;28;21363;-71
2021/07/02 10:23:12;;;;;;;6.03;5.60;;;26.00;70.50;;;;;;4947501;28;20641;-71
2021/07/02 10:25:42;;;;;;;6.07;5.57;;;25.90;68.50;;;;;;4950931;28;21029;-71
2021/07/02 10:28:11;;;;;;;6.40;5.90;;;25.50;71.50;;;;;;4949191;28;21277;-71
2021/07/02 10:30:40;;;;;;;6.47;5.97;;;24.70;71.10;;;;;;4948669;28;21122;-71
2021/07/02 10:33:07;;;;;;;5.93;5.43;;;23.80;73.60;;;;;;4943775;28;20646;-69
2021/07/02 10:35:36;;;;;;;5.73;5.33;;;23.70;75.00;;;;;;4950783;28;20614;-70
2021/07/02 10:38:04;;;;;;;5.30;4.90;;;24.10;73.10;;;;;;4945120;28;20615;-71
2021/07/02 10:40:42;;;;;;;6.30;5.80;;;24.20;72.80;;;;;;4947933;28;20739;-70
2021/07/02 10:43:14;;;;;;;6.20;5.80;;;24.60;74.00;;;;;;4946318;29;20656;-70
2021/07/02 10:46:16;;;;;;;6.43;5.90;;;24.40;73.00;;;;;;4944305;29;20661;-70
2021/07/02 10:49:03;;;;;;;7.07;6.47;;;23.90;71.90;;;;;;4947425;28;20642;-70
2021/07/02 10:51:59;;;;;;;7.40;6.70;;;23.30;75.80;;;;;;4945398;28;21213;-70
2021/07/02 10:54:33;;;;;;;6.10;5.60;;;23.30;79.20;;;;;;4948574;28;20648;-71
2021/07/02 10:57:11;;;;;;;6.43;5.93;;;23.90;74.40;;;;;;4948771;28;20689;-70
2021/07/02 11:00:14;;;;;;;7.20;6.60;;;24.30;72.60;;;;;;4949899;28;20651;-70
2021/07/02 11:02:43;;;;;;;6.77;6.17;;;24.90;73.00;;;;;;4948646;28;20614;-70
2021/07/02 11:05:32;;;;;;;5.83;5.33;;;25.00;71.60;;;;;;4952962;28;20669;-70
2021/07/02 11:08:00;;;;;;;6.03;5.60;;;25.00;68.90;;;;;;4946807;28;20705;-70
2021/07/02 11:10:47;;;;;;;5.63;5.23;;;24.90;68.10;;;;;;4951015;28;20607;-70
2021/07/02 11:13:14;;;;;;;5.67;5.27;;;25.00;71.00;;;;;;4950498;29;20745;-70
2021/07/02 11:16:07;;;;;;;7.30;5.53;;;24.70;69.20;;;;;;4946557;29;20736;-76
2021/07/02 11:18:41;;;;;;;5.47;5.07;;;24.00;70.60;;;;;;4950372;29;21045;-74
2021/07/02 11:21:17;;;;;;;7.13;5.97;;;23.50;68.30;;;;;;4950945;29;20635;-74
2021/07/02 11:23:49;;;;;;;6.07;5.57;;;23.30;75.20;;;;;;4951817;28;21319;-74
2021/07/02 11:26:41;;;;;;;5.90;5.50;;;23.80;72.30;;;;;;4949901;29;20621;-74
2021/07/02 11:29:08;;;;;;;5.50;5.07;;;24.20;72.80;;;;;;4945412;28;20692;-74
2021/07/02 11:31:38;;;;;;;5.50;5.00;;;24.20;69.00;;;;;;4951468;28;20640;-74
2021/07/02 11:34:17;;;;;;;5.30;4.90;;;24.00;71.00;;;;;;4955664;28;21216;-74
2021/07/02 11:37:09;;;;;;;5.57;5.07;;;23.80;68.70;;;;;;4948584;29;20683;-74
2021/07/02 11:39:39;;;;;;;5.97;5.57;;;23.70;70.70;;;;;;4951779;28;20672;-74
2021/07/02 11:42:12;;;;;;;6.37;5.77;;;23.40;70.10;;;;;;4951278;29;20718;-74
2021/07/02 11:44:39;;;;;;;6.43;5.40;;;23.10;71.10;;;;;;4949305;29;20738;-74
2021/07/02 11:47:08;;;;;;;6.33;5.73;;;23.00;72.20;;;;;;4954141;28;21212;-74
2021/07/02 11:49:50;;;;;;;6.27;5.77;;;23.40;69.40;;;;;;4950485;28;20649;-74
2021/07/02 11:52:17;;;;;;;6.20;5.10;;;23.60;69.40;;;;;;4947459;29;21378;-74
2021/07/02 11:54:54;;;;;;;7.03;4.90;;;23.90;69.70;;;;;;4946002;29;21182;-74
2021/07/02 11:57:25;;;;;;;6.33;5.73;;;23.70;71.80;;;;;;4947674;29;20632;-74
2021/07/02 12:00:06;;;;;;;5.53;5.13;;;23.40;71.50;;;;;;4947246;29;20768;-74
2021/07/02 12:02:33;;;;;;;5.37;4.87;;;23.10;72.00;;;;;;4947156;28;20641;-74
2021/07/02 12:05:05;;;;;;;6.23;5.63;;;23.00;71.00;;;;;;4949601;29;20694;-74
2021/07/02 12:07:32;;;;;;;6.07;5.57;;;22.90;70.00;;;;;;4948253;29;20644;-74
2021/07/02 12:10:01;;;;;;;5.73;5.23;;;23.20;75.30;;;;;;4950105;28;20744;-73
2021/07/02 12:12:28;;;;;;;6.80;5.80;;;23.80;75.70;;;;;;4947503;28;20655;-73
2021/07/02 12:14:55;;;;;;;6.00;5.57;;;24.10;71.70;;;;;;4949881;28;20648;-74
2021/07/02 12:17:22;;;;;;;5.63;5.23;;;24.30;74.90;;;;;;4951562;28;20635;-74
2021/07/02 12:19:51;;;;;;;6.30;5.80;;;24.20;70.40;;;;;;4948471;28;20630;-72
2021/07/02 12:22:17;;;;;;;5.70;5.10;;;23.50;70.70;;;;;;4949994;28;20735;-74
2021/07/02 12:24:46;;;;;;;6.13;5.63;;;23.30;71.10;;;;;;4949353;29;20684;-73
2021/07/02 12:27:16;;;;;;;6.43;5.90;;;22.90;71.90;;;;;;4948121;29;20743;-73
2021/07/02 12:29:44;;;;;;;6.67;6.07;;;22.90;72.60;;;;;;4949554;28;20647;-73
2021/07/02 12:32:13;;;;;;;6.63;6.07;;;23.00;73.60;;;;;;4947858;29;20625;-73
2021/07/02 12:34:44;;;;;;;6.60;6.00;;;22.90;73.00;;;;;;4947457;28;20636;-73
2021/07/02 12:37:13;;;;;;;6.83;6.07;;;22.70;72.30;;;;;;4948803;29;21109;-73
2021/07/02 12:39:42;;;;;;;7.00;6.40;;;22.40;73.00;;;;;;4949759;28;21214;-73
2021/07/02 12:42:12;;;;;;;6.50;5.90;;;22.60;76.90;;;;;;4949524;28;21216;-73
2021/07/02 12:44:43;;;;;;;6.10;5.60;;;22.60;74.30;;;;;;4946728;29;20728;-73
2021/07/02 12:47:11;;;;;;;9.37;5.90;;;22.90;77.90;;;;;;4949179;28;20635;-74
2021/07/02 12:55:16;;;;;;;6.00;5.30;;;23.70;72.50;;;;;;4939296;28;20992;-76
2021/07/02 12:57:54;;;;;;;6.57;5.97;;;23.50;70.90;;;;;;4963136;28;20636;-76
2021/07/02 13:00:33;;;;;;;6.40;5.90;;;23.40;73.40;;;;;;4962011;28;20638;-76
2021/07/02 13:03:01;;;;;;;6.50;6.00;;;23.30;70.00;;;;;;4968401;28;20635;-76
2021/07/02 13:05:31;;;;;;;6.00;5.50;;;23.00;73.90;;;;;;4968377;28;20762;-76